createdAt,value
2023-12-19T00:00:28.576Z,102646.50
2023-12-19T00:02:55.753Z,102641.22
2023-12-19T00:05:22.333Z,102640.31
2023-12-19T00:07:48.824Z,102633.38
2023-12-19T00:10:15.469Z,102622.16
2023-12-19T00:12:43.669Z,102625.66
2023-12-19T00:15:10.904Z,102607.44
2023-12-19T00:17:37.662Z,102610.00
2023-12-19T00:20:04.552Z,102612.69
2023-12-19T00:22:31.531Z,102602.16
2023-12-19T00:24:58.192Z,102605.69
2023-12-19T00:27:24.850Z,102608.28
2023-12-19T00:29:51.273Z,102600.44
2023-12-19T00:32:17.740Z,102583.88
2023-12-19T00:34:44.260Z,102587.34
2023-12-19T00:37:10.671Z,102567.22
2023-12-19T00:39:37.905Z,102567.22
2023-12-19T00:42:04.581Z,102564.66
2023-12-19T00:44:31.028Z,102560.28
2023-12-19T00:46:57.412Z,102565.50
2023-12-19T00:49:23.894Z,102563.69
2023-12-19T00:51:50.342Z,102562.72
2023-12-19T00:54:16.872Z,102553.22
2023-12-19T00:56:43.565Z,102552.25
2023-12-19T00:59:10.035Z,102561.78
2023-12-19T01:01:36.713Z,102560.06
2023-12-19T01:04:03.334Z,102546.91
2023-12-19T01:06:30.114Z,102527.75
2023-12-19T01:08:56.660Z,102532.13
2023-12-19T01:11:23.140Z,102532.97
2023-12-19T01:13:49.596Z,102527.78
2023-12-19T01:16:17.193Z,102529.56
2023-12-19T01:18:43.757Z,102528.75
2023-12-19T01:21:10.252Z,102537.34
2023-12-19T01:23:36.629Z,102541.69
2023-12-19T01:26:09.274Z,102534.75
2023-12-19T01:28:40.255Z,102537.31
2023-12-19T01:31:07.181Z,102524.25
2023-12-19T01:33:34.035Z,102508.56
2023-12-19T01:36:03.149Z,102518.03
2023-12-19T01:38:29.654Z,102525.88
2023-12-19T01:40:56.118Z,102523.34
2023-12-19T01:43:22.528Z,102513.75
2023-12-19T01:45:51.070Z,102512.88
2023-12-19T01:48:18.425Z,102519.88
2023-12-19T01:50:47.375Z,102503.38
2023-12-19T01:53:13.917Z,102506.84
2023-12-19T01:55:41.672Z,102498.19
2023-12-19T01:58:09.804Z,102495.41
2023-12-19T02:00:37.429Z,102496.28
2023-12-19T02:03:05.121Z,102493.69
2023-12-19T02:05:37.754Z,102487.56
2023-12-19T02:08:04.623Z,102497.09
2023-12-19T02:10:31.106Z,102498.94
2023-12-19T02:12:58.131Z,102496.31
2023-12-19T02:15:24.868Z,102490.94
2023-12-19T02:17:51.483Z,102483.94
2023-12-19T02:20:18.139Z,102481.28
2023-12-19T02:22:50.378Z,102477.84
2023-12-19T02:25:18.136Z,102471.72
2023-12-19T02:27:44.687Z,102470.00
2023-12-19T02:30:11.405Z,102456.81
2023-12-19T02:32:38.070Z,102451.56
2023-12-19T02:35:04.914Z,102451.63
2023-12-19T02:37:31.601Z,102449.97
2023-12-19T02:39:58.098Z,102451.63
2023-12-19T02:42:24.673Z,102442.00
2023-12-19T02:44:51.314Z,102432.31
2023-12-19T02:47:17.699Z,102430.63
2023-12-19T02:49:44.144Z,102426.19
2023-12-19T02:52:10.581Z,102417.41
2023-12-19T02:54:37.160Z,102412.13
2023-12-19T02:57:03.904Z,102407.75
2023-12-19T02:59:30.310Z,102398.97
2023-12-19T03:01:56.734Z,102404.22
2023-12-19T03:04:23.299Z,102398.97
2023-12-19T03:06:49.777Z,102394.47
2023-12-19T03:09:16.185Z,102389.94
2023-12-19T03:11:59.876Z,102385.63
2023-12-19T03:14:26.310Z,102378.63
2023-12-19T03:16:52.656Z,102382.16
2023-12-19T03:19:19.227Z,102377.75
2023-12-19T03:21:45.751Z,102364.59
2023-12-19T03:24:12.154Z,102361.19
2023-12-19T03:26:38.519Z,102369.78
2023-12-19T03:29:04.898Z,102368.03
2023-12-19T03:31:31.392Z,102361.06
2023-12-19T03:33:58.343Z,102355.72
2023-12-19T03:36:24.890Z,102354.88
2023-12-19T03:38:51.363Z,102345.19
2023-12-19T03:41:17.788Z,102347.81
2023-12-19T03:43:44.334Z,102342.56
2023-12-19T03:46:11.572Z,102340.81
2023-12-19T03:48:38.333Z,102322.41
2023-12-19T03:51:04.916Z,102314.50
2023-12-19T03:53:31.340Z,102324.91
2023-12-19T03:55:57.821Z,102332.69
2023-12-19T03:58:24.265Z,102317.81
2023-12-19T04:00:50.730Z,102309.09
2023-12-19T04:03:17.245Z,102302.09
2023-12-19T04:05:43.657Z,102298.63
2023-12-19T04:08:10.092Z,102289.00
2023-12-19T04:10:36.736Z,102286.38
2023-12-19T04:13:03.304Z,102285.41
2023-12-19T04:15:31.264Z,102282.84
2023-12-19T04:17:57.709Z,102282.84
2023-12-19T04:20:24.124Z,102283.75
2023-12-19T04:22:50.519Z,102286.38
2023-12-19T04:25:17.083Z,102275.91
2023-12-19T04:27:43.557Z,102278.47
2023-12-19T04:30:10.570Z,102266.09
2023-12-19T04:32:37.069Z,102259.16
2023-12-19T04:35:04.821Z,102259.16
2023-12-19T04:37:32.309Z,102254.72
2023-12-19T04:39:58.955Z,102248.63
2023-12-19T04:42:25.664Z,102247.75
2023-12-19T04:44:52.105Z,102250.38
2023-12-19T04:47:18.530Z,102246.72
2023-12-19T04:49:45.176Z,102245.81
2023-12-19T04:52:11.779Z,102248.38
2023-12-19T04:54:38.414Z,102246.50
2023-12-19T04:57:05.110Z,102242.06
2023-12-19T04:59:33.068Z,102245.47
2023-12-19T05:01:59.553Z,102238.47
2023-12-19T05:04:25.977Z,102234.06
2023-12-19T05:06:52.874Z,102228.84
2023-12-19T05:09:19.989Z,102229.56
2023-12-19T05:11:46.435Z,102226.09
2023-12-19T05:14:12.916Z,102226.94
2023-12-19T05:16:39.354Z,102219.88
2023-12-19T05:19:05.900Z,102222.50
2023-12-19T05:21:39.458Z,102224.31
2023-12-19T05:24:06.794Z,102213.78
2023-12-19T05:26:33.724Z,102215.41
2023-12-19T05:29:00.140Z,102218.94
2023-12-19T05:31:26.843Z,102210.16
2023-12-19T05:33:53.510Z,102213.59
2023-12-19T05:36:20.125Z,102210.09
2023-12-19T05:38:46.528Z,102202.31
2023-12-19T05:41:16.181Z,102204.00
2023-12-19T05:43:42.781Z,102202.25
2023-12-19T05:46:09.318Z,102203.09
2023-12-19T05:48:35.849Z,102203.84
2023-12-19T05:51:04.373Z,102204.78
2023-12-19T05:53:30.838Z,102200.31
2023-12-19T05:55:57.323Z,102188.91
2023-12-19T05:58:23.723Z,102195.88
2023-12-19T06:00:50.547Z,102187.09
2023-12-19T06:03:17.187Z,102191.34
2023-12-19T06:05:43.661Z,102184.34
2023-12-19T06:08:10.150Z,102186.09
2023-12-19T06:10:36.556Z,102180.88
2023-12-19T06:13:03.249Z,102179.88
2023-12-19T06:15:29.797Z,102166.78
2023-12-19T06:17:56.284Z,102166.72
2023-12-19T06:20:22.939Z,102165.69
2023-12-19T06:22:49.452Z,102157.00
2023-12-19T06:25:15.881Z,102153.44
2023-12-19T06:27:43.798Z,102155.06
2023-12-19T06:30:19.760Z,102156.78
2023-12-19T06:32:53.483Z,102154.16
2023-12-19T06:35:20.008Z,102166.28
2023-12-19T06:37:46.626Z,102147.94
2023-12-19T06:40:13.456Z,102138.38
2023-12-19T06:42:39.966Z,102142.69
2023-12-19T06:45:07.105Z,102140.97
2023-12-19T06:47:35.066Z,102135.66
2023-12-19T06:50:01.498Z,102126.88
2023-12-19T06:52:29.235Z,102139.88
2023-12-19T06:54:55.772Z,102136.38
2023-12-19T06:57:22.249Z,102131.94
2023-12-19T06:59:48.947Z,102131.94
2023-12-19T07:02:15.531Z,102135.31
2023-12-19T07:04:42.011Z,102125.75
2023-12-19T07:07:10.004Z,102117.06
2023-12-19T07:09:39.479Z,102121.44
2023-12-19T07:12:06.396Z,102120.53
2023-12-19T07:14:32.895Z,102113.50
2023-12-19T07:16:59.348Z,102110.03
2023-12-19T07:19:25.967Z,102118.75
2023-12-19T07:21:52.657Z,102118.66
2023-12-19T07:24:19.168Z,102121.22
2023-12-19T07:26:45.540Z,102124.69
2023-12-19T07:29:12.048Z,102123.69
2023-12-19T07:31:39.563Z,102121.06
2023-12-19T07:34:06.847Z,102107.03
2023-12-19T07:36:34.232Z,102116.63
2023-12-19T07:39:01.192Z,102107.03
2023-12-19T07:41:28.368Z,102111.28
2023-12-19T07:43:55.781Z,102107.69
2023-12-19T07:46:22.753Z,102106.75
2023-12-19T07:48:49.573Z,102111.16
2023-12-19T07:51:25.693Z,102110.13
2023-12-19T07:53:52.411Z,102108.38
2023-12-19T07:56:18.921Z,102097.88
2023-12-19T07:58:45.369Z,102084.75
2023-12-19T08:01:14.045Z,102093.47
2023-12-19T08:03:42.559Z,102100.44
2023-12-19T08:06:09.250Z,102084.75
2023-12-19T08:08:35.685Z,102089.16
2023-12-19T08:11:02.117Z,102083.91
2023-12-19T08:13:30.354Z,102094.41
2023-12-19T08:15:57.103Z,102085.63
2023-12-19T08:18:23.676Z,102085.63
2023-12-19T08:20:50.218Z,102086.47
2023-12-19T08:23:16.735Z,102069.88
2023-12-19T08:25:43.619Z,102074.19
2023-12-19T08:28:10.530Z,102074.28
2023-12-19T08:30:37.676Z,102071.50
2023-12-19T08:33:04.667Z,102068.03
2023-12-19T08:35:31.327Z,102066.25
2023-12-19T08:37:57.864Z,102067.13
2023-12-19T08:40:24.642Z,102068.81
2023-12-19T08:42:51.154Z,102066.19
2023-12-19T08:45:19.554Z,102060.94
2023-12-19T08:47:47.759Z,102068.81
2023-12-19T08:50:16.638Z,102067.91
2023-12-19T08:52:44.157Z,102059.88
2023-12-19T08:55:12.542Z,102063.50
2023-12-19T08:57:43.390Z,102056.47
2023-12-19T09:00:16.689Z,102049.53
2023-12-19T09:02:47.560Z,102040.75
2023-12-19T09:05:15.843Z,102047.69
2023-12-19T09:07:43.569Z,102048.53
2023-12-19T09:10:12.660Z,102052.81
2023-12-19T09:12:39.445Z,102053.72
2023-12-19T09:15:07.640Z,102049.31
2023-12-19T09:17:34.941Z,102042.06
2023-12-19T09:20:05.742Z,102050.88
2023-12-19T09:22:33.192Z,102051.03
2023-12-19T09:24:59.670Z,102045.72
2023-12-19T09:27:26.282Z,102036.13
2023-12-19T09:29:52.857Z,102044.00
2023-12-19T09:32:19.861Z,102027.34
2023-12-19T09:34:46.527Z,102020.22
2023-12-19T09:37:13.037Z,102023.69
2023-12-19T09:39:39.628Z,102030.72
2023-12-19T09:42:07.738Z,102031.56
2023-12-19T09:44:34.261Z,102027.28
2023-12-19T09:47:00.749Z,102014.97
2023-12-19T09:49:29.889Z,102021.06
2023-12-19T09:51:58.935Z,102015.94
2023-12-19T09:54:25.475Z,102008.91
2023-12-19T09:56:53.579Z,102005.25
2023-12-19T09:59:20.717Z,102004.41
2023-12-19T10:01:47.864Z,102009.72
2023-12-19T10:04:18.454Z,102007.13
2023-12-19T10:06:59.789Z,102001.78
2023-12-19T10:09:26.606Z,101995.63
2023-12-19T10:12:10.922Z,101994.69
2023-12-19T10:14:37.686Z,101998.25
2023-12-19T10:17:05.747Z,101988.69
2023-12-19T10:19:34.449Z,101989.44
2023-12-19T10:22:08.992Z,101978.97
2023-12-19T10:24:36.350Z,101979.88
2023-12-19T10:27:04.323Z,101978.09
2023-12-19T10:29:37.669Z,101965.78
2023-12-19T10:32:14.260Z,101969.25
2023-12-19T10:34:42.068Z,101959.59
2023-12-19T10:37:13.177Z,101954.34
2023-12-19T10:39:42.156Z,101944.78
2023-12-19T10:42:10.825Z,101937.69
2023-12-19T10:44:40.261Z,101932.53
2023-12-19T10:47:11.564Z,101932.59
2023-12-19T10:49:39.149Z,101916.84
2023-12-19T10:52:09.126Z,101917.69
2023-12-19T10:54:37.449Z,101912.38
2023-12-19T10:57:16.986Z,101914.22
2023-12-19T11:00:10.800Z,101911.53
2023-12-19T11:03:11.356Z,101914.16
2023-12-19T11:05:42.100Z,101905.44
2023-12-19T11:08:19.373Z,101894.94
2023-12-19T11:11:04.546Z,101894.88
2023-12-19T11:13:33.792Z,101893.03
2023-12-19T11:16:10.298Z,101891.25
2023-12-19T11:18:51.904Z,101886.91
2023-12-19T11:21:24.111Z,101880.75
2023-12-19T11:24:04.469Z,101874.66
2023-12-19T11:26:41.694Z,101871.19
2023-12-19T11:29:08.343Z,101868.63
2023-12-19T11:31:39.386Z,101866.84
2023-12-19T11:34:23.250Z,101858.00
2023-12-19T11:37:07.673Z,101866.63
2023-12-19T11:39:41.256Z,101860.38
2023-12-19T11:42:07.725Z,101847.19
2023-12-19T11:44:35.499Z,101842.63
2023-12-19T11:47:19.206Z,101841.72
2023-12-19T11:49:46.567Z,101845.19
2023-12-19T11:52:34.899Z,101831.97
2023-12-19T11:55:05.488Z,101831.13
2023-12-19T11:57:33.735Z,101816.25
2023-12-19T12:00:01.465Z,101818.94
2023-12-19T12:02:32.976Z,101814.38
2023-12-19T12:05:03.560Z,101802.81
2023-12-19T12:07:30.291Z,101799.31
2023-12-19T12:10:07.586Z,101797.63
2023-12-19T12:12:34.792Z,101791.53
2023-12-19T12:15:20.271Z,101795.84
2023-12-19T12:17:47.078Z,101787.91
2023-12-19T12:20:15.600Z,101772.03
2023-12-19T12:22:42.265Z,101782.53
2023-12-19T12:25:11.246Z,101773.75
2023-12-19T12:27:37.763Z,101766.81
2023-12-19T12:30:10.675Z,101765.09
2023-12-19T12:32:37.501Z,101768.50
2023-12-19T12:35:24.891Z,101759.63
2023-12-19T12:38:21.551Z,101761.16
2023-12-19T12:41:02.063Z,101752.44
2023-12-19T12:43:38.000Z,101750.72
2023-12-19T12:46:15.235Z,101747.25
2023-12-19T12:48:55.327Z,101747.19
2023-12-19T12:51:22.474Z,101740.22
2023-12-19T12:53:56.928Z,101737.53
2023-12-19T12:56:35.806Z,101735.00
2023-12-19T12:59:08.043Z,101740.22
2023-12-19T13:01:38.059Z,101746.34
2023-12-19T13:04:04.810Z,101751.59
2023-12-19T13:06:31.943Z,101741.94
2023-12-19T13:08:58.630Z,101740.41
2023-12-19T13:11:25.396Z,101732.59
2023-12-19T13:13:51.812Z,101730.81
2023-12-19T13:16:18.378Z,101733.38
2023-12-19T13:18:49.058Z,101728.13
2023-12-19T13:21:15.842Z,101731.44
2023-12-19T13:23:42.912Z,101736.69
2023-12-19T13:26:09.852Z,101732.38
2023-12-19T13:28:37.279Z,101728.03
2023-12-19T13:31:09.410Z,101735.84
2023-12-19T13:33:36.450Z,101725.34
2023-12-19T13:36:03.273Z,101727.88
2023-12-19T13:38:29.694Z,101732.28
2023-12-19T13:40:56.153Z,101736.59
2023-12-19T13:43:23.090Z,101725.25
2023-12-19T13:45:49.617Z,101729.56
2023-12-19T13:48:17.896Z,101723.41
2023-12-19T13:50:44.538Z,101718.16
2023-12-19T13:53:11.058Z,101717.13
2023-12-19T13:55:37.645Z,101713.53
2023-12-19T13:58:05.052Z,101717.22
2023-12-19T14:00:33.164Z,101718.16
2023-12-19T14:03:00.680Z,101708.41
2023-12-19T14:05:29.154Z,101704.84
2023-12-19T14:08:00.694Z,101709.41
2023-12-19T14:10:27.361Z,101711.97
2023-12-19T14:12:53.803Z,101705.03
2023-12-19T14:15:20.666Z,101711.97
2023-12-19T14:17:47.690Z,101717.22
2023-12-19T14:20:14.989Z,101706.78
2023-12-19T14:22:42.161Z,101708.56
2023-12-19T14:25:10.013Z,101711.19
2023-12-19T14:27:40.404Z,101706.13
2023-12-19T14:30:09.637Z,101703.31
2023-12-19T14:32:37.787Z,101703.31
2023-12-19T14:35:06.080Z,101705.03
2023-12-19T14:37:34.467Z,101696.38
2023-12-19T14:40:00.927Z,101694.69
2023-12-19T14:42:28.798Z,101690.13
2023-12-19T14:44:56.930Z,101693.59
2023-12-19T14:47:23.375Z,101678.78
2023-12-19T14:49:51.893Z,101676.91
2023-12-19T14:52:18.457Z,101669.97
2023-12-19T14:54:46.887Z,101676.91
2023-12-19T14:57:13.463Z,101682.16
2023-12-19T14:59:40.814Z,101688.25
2023-12-19T15:02:07.433Z,101676.06
2023-12-19T15:04:36.160Z,101688.25
2023-12-19T15:07:02.936Z,101697.72
2023-12-19T15:09:29.650Z,101694.16
2023-12-19T15:11:56.181Z,101693.16
2023-12-19T15:14:23.453Z,101686.88
2023-12-19T15:16:49.926Z,101690.44
2023-12-19T15:19:16.516Z,101698.31
2023-12-19T15:21:43.063Z,101695.78
2023-12-19T15:24:09.766Z,101693.81
2023-12-19T15:26:40.130Z,101690.34
2023-12-19T15:29:09.476Z,101701.69
2023-12-19T15:31:42.274Z,101696.44
2023-12-19T15:34:09.985Z,101703.31
2023-12-19T15:36:36.481Z,101699.00
2023-12-19T15:39:03.756Z,101698.16
2023-12-19T15:41:30.212Z,101698.91
2023-12-19T15:44:04.759Z,101699.84
2023-12-19T15:46:39.887Z,101698.16
2023-12-19T15:49:09.644Z,101695.53
2023-12-19T15:51:36.336Z,101693.81
2023-12-19T15:54:04.576Z,101698.16
2023-12-19T15:56:35.995Z,101700.78
2023-12-19T15:59:04.761Z,101706.19
2023-12-19T16:01:31.642Z,101706.19
2023-12-19T16:03:58.387Z,101697.38
2023-12-19T16:06:27.291Z,101692.91
2023-12-19T16:08:54.371Z,101690.28
2023-12-19T16:11:22.284Z,101687.56
2023-12-19T16:13:50.723Z,101685.78
2023-12-19T16:16:18.084Z,101692.81
2023-12-19T16:18:45.813Z,101684.66
2023-12-19T16:21:14.859Z,101685.63
2023-12-19T16:23:53.097Z,101686.53
2023-12-19T16:26:27.672Z,101680.44
2023-12-19T16:28:54.132Z,101677.75
2023-12-19T16:31:20.744Z,101667.25
2023-12-19T16:33:47.536Z,101673.22
2023-12-19T16:36:14.681Z,101680.25
2023-12-19T16:38:43.121Z,101677.75
2023-12-19T16:41:10.701Z,101689.91
2023-12-19T16:43:38.269Z,101678.66
2023-12-19T16:46:06.117Z,101679.59
2023-12-19T16:48:33.087Z,101692.66
2023-12-19T16:51:00.074Z,101691.78
2023-12-19T16:53:26.803Z,101696.19
2023-12-19T16:55:53.261Z,101694.41
2023-12-19T16:58:22.729Z,101692.53
2023-12-19T17:00:53.913Z,101687.28
2023-12-19T17:03:20.483Z,101687.28
2023-12-19T17:05:48.266Z,101685.63
2023-12-19T17:08:14.711Z,101682.13
2023-12-19T17:10:41.185Z,101676.03
2023-12-19T17:13:07.671Z,101689.91
2023-12-19T17:15:34.236Z,101684.78
2023-12-19T17:18:00.721Z,101692.72
2023-12-19T17:20:27.238Z,101687.41
2023-12-19T17:22:54.725Z,101692.53
2023-12-19T17:25:21.275Z,101694.22
2023-12-19T17:27:48.114Z,101693.38
2023-12-19T17:30:14.882Z,101696.00
2023-12-19T17:32:43.746Z,101684.41
2023-12-19T17:35:10.820Z,101691.34
2023-12-19T17:37:38.180Z,101684.47
2023-12-19T17:40:08.414Z,101675.69
2023-12-19T17:42:35.848Z,101677.38
2023-12-19T17:45:02.765Z,101683.56
2023-12-19T17:47:29.200Z,101687.97
2023-12-19T17:49:56.196Z,101698.53
2023-12-19T17:52:22.732Z,101703.78
2023-12-19T17:54:49.223Z,101705.66
2023-12-19T17:57:15.649Z,101702.31
2023-12-19T17:59:42.082Z,101701.38
2023-12-19T18:02:08.637Z,101709.25
2023-12-19T18:04:35.682Z,101705.84
2023-12-19T18:07:04.234Z,101703.16
2023-12-19T18:09:31.463Z,101700.53
2023-12-19T18:12:00.744Z,101703.03
2023-12-19T18:14:27.751Z,101696.84
2023-12-19T18:16:55.260Z,101697.69
2023-12-19T18:19:21.914Z,101690.75
2023-12-19T18:21:51.350Z,101688.25
2023-12-19T18:24:19.078Z,101690.88
2023-12-19T18:26:45.506Z,101690.88
2023-12-19T18:29:12.001Z,101706.63
2023-12-19T18:31:38.495Z,101702.31
2023-12-19T18:34:05.148Z,101698.75
2023-12-19T18:36:31.833Z,101710.06
2023-12-19T18:38:58.313Z,101708.28
2023-12-19T18:41:24.802Z,101715.44
2023-12-19T18:43:51.415Z,101696.28
2023-12-19T18:46:18.486Z,101706.69
2023-12-19T18:48:45.185Z,101708.47
2023-12-19T18:51:14.411Z,101707.72
2023-12-19T18:53:41.137Z,101705.09
2023-12-19T18:56:09.436Z,101710.34
2023-12-19T18:58:36.073Z,101704.25
2023-12-19T19:01:05.851Z,101702.63
2023-12-19T19:03:32.946Z,101699.00
2023-12-19T19:05:59.395Z,101695.44
2023-12-19T19:08:26.373Z,101701.63
2023-12-19T19:10:54.356Z,101703.47
2023-12-19T19:13:20.993Z,101715.69
2023-12-19T19:15:48.543Z,101720.94
2023-12-19T19:18:17.125Z,101721.78
2023-12-19T19:20:43.888Z,101727.03
2023-12-19T19:23:16.630Z,101733.19
2023-12-19T19:25:44.220Z,101730.56
2023-12-19T19:28:14.563Z,101735.81
2023-12-19T19:30:42.679Z,101734.13
2023-12-19T19:33:09.319Z,101731.50
2023-12-19T19:35:36.704Z,101725.50
2023-12-19T19:38:03.302Z,101733.13
2023-12-19T19:40:38.462Z,101735.91
2023-12-19T19:43:08.574Z,101740.41
2023-12-19T19:45:35.090Z,101730.06
2023-12-19T19:48:01.742Z,101736.34
2023-12-19T19:50:28.589Z,101731.91
2023-12-19T19:52:55.271Z,101728.56
2023-12-19T19:55:24.873Z,101730.34
2023-12-19T19:57:51.712Z,101737.38
2023-12-19T20:00:19.162Z,101729.47
2023-12-19T20:02:45.726Z,101739.91
2023-12-19T20:05:13.557Z,101732.44
2023-12-19T20:07:41.365Z,101737.84
2023-12-19T20:10:08.805Z,101735.16
2023-12-19T20:12:35.457Z,101738.88
2023-12-19T20:15:02.463Z,101737.28
2023-12-19T20:17:29.028Z,101735.66
2023-12-19T20:19:55.750Z,101728.22
2023-12-19T20:22:22.391Z,101742.09
2023-12-19T20:24:51.264Z,101748.53
2023-12-19T20:27:17.867Z,101752.94
2023-12-19T20:29:44.651Z,101758.28
2023-12-19T20:32:11.782Z,101762.69
2023-12-19T20:34:38.332Z,101749.19
2023-12-19T20:37:04.973Z,101752.66
2023-12-19T20:39:31.561Z,101750.19
2023-12-19T20:41:58.405Z,101745.19
2023-12-19T20:44:25.542Z,101745.34
2023-12-19T20:46:53.474Z,101747.81
2023-12-19T20:49:20.264Z,101738.25
2023-12-19T20:51:49.496Z,101741.88
2023-12-19T20:54:20.085Z,101735.53
2023-12-19T20:56:50.636Z,101746.44
2023-12-19T20:59:17.186Z,101748.28
2023-12-19T21:01:46.300Z,101747.53
2023-12-19T21:04:13.350Z,101751.03
2023-12-19T21:06:41.469Z,101748.47
2023-12-19T21:09:10.694Z,101743.47
2023-12-19T21:11:37.237Z,101747.88
2023-12-19T21:14:03.786Z,101739.31
2023-12-19T21:16:30.623Z,101728.81
2023-12-19T21:18:57.256Z,101738.53
2023-12-19T21:21:24.092Z,101734.41
2023-12-19T21:23:51.839Z,101744.28
2023-12-19T21:26:18.625Z,101739.28
2023-12-19T21:28:45.129Z,101741.13
2023-12-19T21:31:11.929Z,101742.16
2023-12-19T21:33:38.740Z,101746.78
2023-12-19T21:36:05.638Z,101751.25
2023-12-19T21:38:32.282Z,101744.47
2023-12-19T21:40:58.841Z,101742.94
2023-12-19T21:43:25.348Z,101728.22
2023-12-19T21:45:51.824Z,101730.91
2023-12-19T21:48:18.390Z,101725.69
2023-12-19T21:50:45.425Z,101740.63
2023-12-19T21:53:12.017Z,101733.78
2023-12-19T21:55:39.059Z,101738.31
2023-12-19T21:58:05.949Z,101734.25
2023-12-19T22:00:32.556Z,101731.72
2023-12-19T22:02:59.033Z,101742.34
2023-12-19T22:05:28.278Z,101736.25
2023-12-19T22:07:54.699Z,101743.34
2023-12-19T22:10:21.256Z,101739.09
2023-12-19T22:12:47.753Z,101734.03
2023-12-19T22:15:16.420Z,101742.97
2023-12-19T22:17:43.193Z,101749.13
2023-12-19T22:20:10.529Z,101749.13
2023-12-19T22:22:37.056Z,101743.97
2023-12-19T22:25:03.928Z,101738.19
2023-12-19T22:27:30.364Z,101738.34
2023-12-19T22:29:56.811Z,101742.03
2023-12-19T22:32:23.208Z,101729.94
2023-12-19T22:34:49.670Z,101731.00
2023-12-19T22:37:16.359Z,101726.03
2023-12-19T22:39:42.823Z,101719.84
2023-12-19T22:42:09.272Z,101721.69
2023-12-19T22:44:35.638Z,101719.31
2023-12-19T22:47:02.106Z,101728.22
2023-12-19T22:49:32.349Z,101729.31
2023-12-19T22:51:59.069Z,101723.22
2023-12-19T22:54:25.545Z,101727.84
2023-12-19T22:56:52.002Z,101724.50
2023-12-19T22:59:18.624Z,101728.97
2023-12-19T23:01:53.206Z,101728.38
2023-12-19T23:04:21.092Z,101722.13
2023-12-19T23:06:47.657Z,101718.75
2023-12-19T23:09:14.325Z,101728.38
2023-12-19T23:11:40.784Z,101723.91
2023-12-19T23:14:07.495Z,101730.84
2023-12-19T23:16:34.222Z,101730.00
2023-12-19T23:19:01.222Z,101736.16
2023-12-19T23:21:28.089Z,101744.13
2023-12-19T23:23:54.551Z,101728.44
2023-12-19T23:26:21.555Z,101726.66
2023-12-19T23:28:48.024Z,101722.22
2023-12-19T23:31:18.313Z,101728.28
2023-12-19T23:33:46.521Z,101736.91
2023-12-19T23:36:19.497Z,101734.19
2023-12-19T23:38:45.986Z,101722.88
2023-12-19T23:41:19.062Z,101723.91
2023-12-19T23:43:47.282Z,101718.75
2023-12-19T23:46:22.533Z,101727.38
2023-12-19T23:48:50.375Z,101728.91
2023-12-19T23:51:18.211Z,101733.34
2023-12-19T23:53:46.335Z,101723.91
2023-12-19T23:56:13.319Z,101731.81
2023-12-19T23:58:39.765Z,101732.81
